»·PEaware :: WAT234 KSAN-KLAS

WAT234 :: KSAN-KLAS

FLIGHT INFORMATION

Flight Status: Arrived
Operator:
Walker Air Transport
More flights by this operator :: More flights under this callsign
Pilot: Eduardo Elias G. (24838)
Aircraft: BOEING 747-400 (WINGLETS)
(B744)
More flights by this aircraft type
Origin: KSAN San Diego Intl-Lindbergh
United States
Destination: KLAS McCarran Intl
United States
More flights between these airports :: More routes between these airports
Route: + MISEN KEPEC6
File this flight plan on PilotEdge
Remarks:
Altitude:
(Current/Filed)
35,000ft
Speed:
(Current/Filed)
460kts
Departed: 09-Aug-20 03:34 PM
Arrived: 09-Aug-20 04:19 PM
Distance/Time
Traveled:
225nm/0:44
Distance/Time
To Go:
Arrived

Flight Plot

Page will automatically refresh every two minutes.

Flight plan parsing failed; only flown route is shown


Map Options




Map Legend


Flown Route
Filed Route
Departure Airport
Arrival Airport
Navaid (VOR, NDB)
Fix

Horizontal Profiles

Position Reports

Time Latitude Longitude Heading Altitude Ground
Speed
09-Aug-20 15:03 32.732523 -117.207132 192 28ft 0kts
09-Aug-20 15:04 32.732523 -117.207132 192 28ft 0kts
09-Aug-20 15:05 32.732523 -117.207132 192 28ft 0kts
09-Aug-20 15:06 32.732523 -117.207132 192 28ft 0kts
09-Aug-20 15:07 32.732523 -117.207132 192 28ft 0kts
09-Aug-20 15:08 32.732523 -117.207132 192 28ft 0kts
09-Aug-20 15:09 32.732523 -117.207132 192 28ft 0kts
09-Aug-20 15:10 32.732523 -117.207132 192 28ft 0kts
09-Aug-20 15:11 32.732523 -117.207132 192 28ft 0kts
09-Aug-20 15:12 32.732523 -117.207132 192 28ft 0kts
09-Aug-20 15:13 32.732523 -117.207132 192 28ft 0kts
09-Aug-20 15:14 32.732523 -117.207132 192 28ft 0kts
09-Aug-20 15:15 32.732523 -117.207132 192 28ft 0kts
09-Aug-20 15:16 32.732523 -117.207132 192 28ft 0kts
09-Aug-20 15:17 32.732523 -117.207132 192 28ft 0kts
09-Aug-20 15:18 32.732531 -117.207130 191 28ft 0kts
09-Aug-20 15:19 32.733105 -117.206713 258 28ft 2kts
09-Aug-20 15:20 32.732924 -117.206320 321 28ft 0kts
09-Aug-20 15:21 32.732924 -117.206320 321 28ft 0kts
09-Aug-20 15:22 32.732924 -117.206320 321 28ft 0kts
09-Aug-20 15:23 32.732924 -117.206320 321 28ft 0kts
09-Aug-20 15:24 32.733409 -117.206731 336 28ft 13kts
09-Aug-20 15:25 32.736007 -117.204181 99 28ft 17kts
09-Aug-20 15:26 32.734812 -117.199125 106 28ft 14kts
09-Aug-20 15:27 32.733347 -117.193165 105 28ft 27kts
09-Aug-20 15:28 32.731301 -117.184691 106 28ft 22kts
09-Aug-20 15:29 32.729742 -117.178299 105 28ft 17kts
09-Aug-20 15:30 32.729650 -117.177903 104 28ft 0kts
09-Aug-20 15:31 32.729650 -117.177903 104 28ft 0kts
09-Aug-20 15:32 32.729533 -117.176518 85 28ft 20kts
09-Aug-20 15:33 32.730967 -117.179125 286 28ft 74kts
09-Aug-20 15:34 32.750788 -117.232579 306 3255ft 225kts
09-Aug-20 15:35 32.791022 -117.303669 303 6304ft 277kts
09-Aug-20 15:36 32.838890 -117.379421 307 9981ft 295kts
09-Aug-20 15:37 32.896191 -117.468165 306 11588ft 389kts
09-Aug-20 15:38 32.964207 -117.573896 306 14721ft 409kts
09-Aug-20 15:39 33.034150 -117.683307 306 17085ft 424kts
09-Aug-20 15:40 33.118191 -117.785652 319 20333ft 443kts
09-Aug-20 15:41 33.211411 -117.879588 318 23031ft 461kts
09-Aug-20 15:42 33.313145 -117.977098 325 25627ft 479kts
09-Aug-20 15:43 33.445830 -117.981414 24 27829ft 515kts
09-Aug-20 15:44 33.557528 -117.884022 36 30494ft 515kts
09-Aug-20 15:45 33.670683 -117.777808 36 32945ft 515kts
09-Aug-20 15:46 33.783189 -117.671932 36 34840ft 516kts
09-Aug-20 15:47 33.899162 -117.562421 36 34971ft 548kts
09-Aug-20 15:48 34.021779 -117.446213 36 34973ft 567kts
09-Aug-20 15:49 34.145477 -117.328536 36 34999ft 565kts
09-Aug-20 15:50 34.265202 -117.214209 36 35041ft 563kts
09-Aug-20 15:51 34.387862 -117.096638 36 35136ft 563kts
09-Aug-20 15:52 34.510853 -116.978297 36 35149ft 563kts
09-Aug-20 15:53 34.629950 -116.863269 36 33656ft 531kts
09-Aug-20 15:54 34.742648 -116.754025 36 31415ft 508kts
09-Aug-20 15:55 34.851110 -116.648553 36 29261ft 487kts
09-Aug-20 15:56 34.954879 -116.547986 37 27138ft 468kts
09-Aug-20 15:57 35.054179 -116.450780 38 25029ft 449kts
09-Aug-20 15:59 35.145294 -116.351697 46 23180ft 425kts
09-Aug-20 16:00 35.221780 -116.254101 46 22375ft 361kts
09-Aug-20 16:01 35.289222 -116.168929 46 20881ft 338kts
09-Aug-20 16:02 35.353821 -116.087592 45 18599ft 329kts
09-Aug-20 16:03 35.417357 -116.007815 46 16746ft 327kts
09-Aug-20 16:04 35.480399 -115.928480 46 15043ft 322kts
09-Aug-20 16:05 35.541950 -115.850393 47 13470ft 314kts
09-Aug-20 16:06 35.602013 -115.773822 47 13008ft 311kts
09-Aug-20 16:07 35.662180 -115.697037 47 13007ft 311kts
09-Aug-20 16:08 35.689199 -115.602799 91 12387ft 293kts
09-Aug-20 16:09 35.687205 -115.503987 92 11143ft 285kts
09-Aug-20 16:10 35.720698 -115.423983 18 9971ft 291kts
09-Aug-20 16:11 35.799704 -115.416385 2 8460ft 273kts
09-Aug-20 16:12 35.870454 -115.409949 7 8004ft 233kts
09-Aug-20 16:13 35.932379 -115.394302 21 8025ft 225kts
09-Aug-20 16:14 35.990470 -115.365104 22 7908ft 219kts
09-Aug-20 16:15 36.037599 -115.329312 41 6784ft 194kts
09-Aug-20 16:15 36.065390 -115.291142 63 5620ft 172kts
09-Aug-20 16:17 36.073502 -115.223189 90 3654ft 169kts
09-Aug-20 16:17 36.073557 -115.175183 91 2357ft 162kts
09-Aug-20 16:18 36.073641 -115.134663 84 2128ft 35kts
09-Aug-20 16:20 36.077339 -115.133836 1 2128ft 12kts
09-Aug-20 16:20 36.077389 -115.133835 1 2128ft 0kts
09-Aug-20 16:21 36.077389 -115.133835 1 2128ft 0kts
09-Aug-20 16:22 36.078278 -115.134321 270 2128ft 12kts
09-Aug-20 16:23 36.079059 -115.135278 359 2128ft 11kts
09-Aug-20 16:24 36.079729 -115.135309 357 2128ft 0kts
09-Aug-20 16:25 36.079729 -115.135309 357 2128ft 0kts
09-Aug-20 16:26 36.079729 -115.135309 357 2128ft 0kts

Navigation Log

Ident Type
Flight plan parsing failed, navigation log unavailable